Time;durP1;ratioP1;P1;durP2;ratioP2;P2;SDS_P1;SDS_P2;PMS_P1;PMS_P2;Temp;Humidity;BMP_temperature;BMP_pressure;BME280_temperature;BME280_humidity;BME280_pressure;Samples;Min_cycle;Max_cycle;Signal;HPM_P1;HPM_P2
2022/07/05 00:00:20;;;;;;;1999.90;999.90;;;;;;;18.21;100.00;99778.28;5060289;28;20051;-54
2022/07/05 00:03:07;;;;;;;1999.90;999.90;;;;;;;18.29;100.00;99793.72;5060714;28;20045;-54
2022/07/05 00:05:52;;;;;;;1999.90;999.90;;;;;;;18.52;100.00;99793.25;5059722;28;20407;-54
2022/07/05 00:08:37;;;;;;;1999.90;999.90;;;;;;;18.43;100.00;99781.41;5063894;28;20400;-55
2022/07/05 00:11:22;;;;;;;1999.90;999.90;;;;;;;18.27;100.00;99788.53;5062438;28;20464;-55
2022/07/05 00:14:06;;;;;;;1999.90;999.90;;;;;;;18.30;100.00;99791.00;5061140;28;20453;-54
2022/07/05 00:16:51;;;;;;;1999.90;999.90;;;;;;;18.39;100.00;99787.84;5064104;28;20056;-54
2022/07/05 00:19:35;;;;;;;1999.90;999.90;;;;;;;18.41;100.00;99777.13;5062678;28;20045;-54
2022/07/05 00:22:20;;;;;;;1999.90;999.90;;;;;;;18.38;100.00;99779.97;5063113;28;20101;-54
2022/07/05 00:25:05;;;;;;;1999.90;999.90;;;;;;;18.30;100.00;99784.88;5065734;28;20048;-54
2022/07/05 00:27:49;;;;;;;1999.90;999.90;;;;;;;18.33;100.00;99785.53;5067618;28;20596;-54
2022/07/05 00:30:34;;;;;;;1999.90;999.90;;;;;;;18.42;100.00;99795.59;5068232;28;20064;-54
2022/07/05 00:33:18;;;;;;;1999.90;999.90;;;;;;;18.40;100.00;99788.69;5066736;28;20049;-54
2022/07/05 00:36:03;;;;;;;1999.90;999.90;;;;;;;18.54;100.00;99799.34;5066003;28;20063;-54
2022/07/05 00:38:47;;;;;;;1999.90;999.90;;;;;;;18.40;100.00;99801.94;5066272;28;20064;-54
2022/07/05 00:41:32;;;;;;;1999.90;999.90;;;;;;;18.31;100.00;99797.16;5065339;28;20048;-55
2022/07/05 00:44:16;;;;;;;1999.90;999.90;;;;;;;18.33;100.00;99789.97;5066474;28;20064;-54
2022/07/05 00:47:06;;;;;;;1999.90;999.90;;;;;;;18.33;100.00;99792.59;5062629;28;20051;-54
2022/07/05 00:49:51;;;;;;;1999.90;999.90;;;;;;;18.20;100.00;99785.38;5065655;28;21252;-54
2022/07/05 00:52:36;;;;;;;1999.90;999.90;;;;;;;18.29;100.00;99788.44;5064646;28;20376;-55
2022/07/05 00:55:20;;;;;;;1999.90;999.90;;;;;;;18.22;100.00;99782.63;5064802;28;20055;-54
2022/07/05 00:58:04;;;;;;;1999.90;999.90;;;;;;;18.20;100.00;99788.03;5067052;28;20122;-54
2022/07/05 01:00:49;;;;;;;1999.90;999.90;;;;;;;18.30;100.00;99790.16;5063750;28;20133;-55
2022/07/05 01:03:34;;;;;;;1999.90;999.90;;;;;;;18.06;100.00;99784.44;5065658;28;20071;-53
2022/07/05 01:06:19;;;;;;;1999.90;999.90;;;;;;;17.97;100.00;99791.09;5060950;28;20522;-54
2022/07/05 01:09:03;;;;;;;1999.90;999.90;;;;;;;17.97;100.00;99794.63;5064502;28;20048;-54
2022/07/05 01:11:49;;;;;;;1999.90;999.90;;;;;;;17.87;100.00;99789.91;5067583;28;21001;-54
2022/07/05 01:14:34;;;;;;;1999.90;999.90;;;;;;;17.93;100.00;99792.22;5065140;28;20052;-54
2022/07/05 01:17:18;;;;;;;1999.90;999.90;;;;;;;17.97;100.00;99794.63;5064210;28;20048;-54
2022/07/05 01:20:07;;;;;;;1999.90;999.90;;;;;;;17.82;100.00;99795.47;5062673;28;20069;-55
2022/07/05 01:22:54;;;;;;;1999.90;999.90;;;;;;;17.84;100.00;99792.72;5062722;28;20510;-54
2022/07/05 01:25:40;;;;;;;1999.90;999.90;;;;;;;17.93;100.00;99789.56;5063324;28;20434;-54
2022/07/05 01:28:25;;;;;;;1999.90;999.90;;;;;;;17.82;100.00;99787.53;5063957;28;20394;-54
2022/07/05 01:31:09;;;;;;;1999.90;999.90;;;;;;;17.86;100.00;99777.59;5063892;28;20082;-54
2022/07/05 01:33:53;;;;;;;1999.90;999.90;;;;;;;17.81;100.00;99775.22;5065217;28;20718;-54
2022/07/05 01:36:38;;;;;;;1999.90;999.90;;;;;;;17.91;100.00;99775.56;5061931;28;20498;-55
2022/07/05 01:39:23;;;;;;;1999.90;999.90;;;;;;;17.86;100.00;99790.84;5062468;28;20775;-54
2022/07/05 01:42:07;;;;;;;1999.90;999.90;;;;;;;17.96;100.00;99782.31;5066726;28;20082;-55
2022/07/05 01:44:51;;;;;;;1999.90;999.90;;;;;;;17.96;100.00;99786.75;5064484;28;20039;-55
2022/07/05 01:47:40;;;;;;;1999.90;999.90;;;;;;;17.88;100.00;99783.69;5062311;28;20109;-54
2022/07/05 01:50:25;;;;;;;1999.90;999.90;;;;;;;18.02;100.00;99781.09;5067223;28;20055;-54
2022/07/05 01:53:14;;;;;;;1999.90;999.90;;;;;;;17.91;100.00;99787.03;5064792;28;20052;-53
2022/07/05 01:56:00;;;;;;;1999.90;999.90;;;;;;;17.99;100.00;99791.88;5063682;28;20095;-55
2022/07/05 01:58:46;;;;;;;1999.90;999.90;;;;;;;17.94;100.00;99789.50;5064386;28;20044;-54
2022/07/05 02:01:35;;;;;;;1999.90;999.90;;;;;;;17.93;100.00;99792.22;5065863;28;20090;-54
2022/07/05 02:04:20;;;;;;;1999.90;999.90;;;;;;;17.74;100.00;99792.34;5066481;28;20048;-54
2022/07/05 02:07:07;;;;;;;1999.90;999.90;;;;;;;17.87;100.00;99793.41;5063481;28;20055;-54
2022/07/05 02:09:51;;;;;;;1999.90;999.90;;;;;;;17.87;100.00;99803.16;5066966;28;20067;-54
2022/07/05 02:12:36;;;;;;;1999.90;999.90;;;;;;;17.95;100.00;99808.91;5064134;28;20450;-56
2022/07/05 02:15:21;;;;;;;1999.90;999.90;;;;;;;17.90;100.00;99814.44;5062016;28;20560;-54
2022/07/05 02:18:07;;;;;;;1999.90;999.90;;;;;;;18.01;100.00;99820.97;5062983;28;20499;-54
2022/07/05 02:20:53;;;;;;;1999.90;999.90;;;;;;;17.95;100.00;99820.34;5076911;28;20049;-55
2022/07/05 02:23:38;;;;;;;1999.90;999.90;;;;;;;18.08;100.00;99823.16;5065956;28;20052;-54
2022/07/05 02:26:24;;;;;;;1999.90;999.90;;;;;;;17.94;100.00;99815.16;5063116;28;20062;-54
2022/07/05 02:29:09;;;;;;;1999.90;999.90;;;;;;;17.81;100.00;99808.78;5061744;28;20118;-54
2022/07/05 02:31:55;;;;;;;1999.90;999.90;;;;;;;17.80;100.00;99807.09;5060085;28;20051;-55
2022/07/05 02:34:40;;;;;;;1999.90;999.90;;;;;;;17.71;100.00;99803.97;5059083;28;20094;-54
2022/07/05 02:37:26;;;;;;;1999.90;999.90;;;;;;;17.70;100.00;99802.25;5063322;28;20074;-54
2022/07/05 02:40:13;;;;;;;1999.90;999.90;;;;;;;17.64;100.00;99812.31;5061617;28;20058;-54
2022/07/05 02:43:01;;;;;;;1999.90;999.90;;;;;;;17.55;100.00;99812.81;5064439;28;20044;-54
2022/07/05 02:45:47;;;;;;;1999.90;999.90;;;;;;;17.55;100.00;99818.09;5064119;28;20573;-54
2022/07/05 02:48:34;;;;;;;1999.90;999.90;;;;;;;17.61;100.00;99821.28;5062188;28;20090;-54
2022/07/05 02:51:19;;;;;;;1999.90;999.90;;;;;;;17.62;100.00;99819.50;5064993;28;20452;-54
2022/07/05 02:54:06;;;;;;;1999.90;999.90;;;;;;;17.63;100.00;99802.69;5065047;28;20055;-54
2022/07/05 02:56:53;;;;;;;1999.90;999.90;;;;;;;17.55;100.00;99805.75;5064921;28;20596;-54
2022/07/05 02:59:39;;;;;;;1999.90;999.90;;;;;;;17.42;100.00;99802.91;5064988;28;20045;-54
2022/07/05 03:02:24;;;;;;;1999.90;999.90;;;;;;;17.46;100.00;99801.78;5064676;28;20086;-54
2022/07/05 03:05:09;;;;;;;1999.90;999.90;;;;;;;17.54;100.00;99801.38;5065649;28;20410;-54
2022/07/05 03:07:55;;;;;;;1999.90;999.90;;;;;;;17.54;100.00;99793.44;5063497;28;20076;-54
2022/07/05 03:10:43;;;;;;;1999.90;999.90;;;;;;;17.56;100.00;99809.25;5062593;28;20094;-54
2022/07/05 03:13:27;;;;;;;1999.90;999.90;;;;;;;17.72;100.00;99810.97;5061465;28;20052;-54
2022/07/05 03:16:12;;;;;;;1999.90;999.90;;;;;;;17.61;100.00;99818.63;5063877;28;20371;-54
2022/07/05 03:18:58;;;;;;;1999.90;999.90;;;;;;;17.65;100.00;99819.34;5061807;28;20071;-54
2022/07/05 03:21:44;;;;;;;1999.90;999.90;;;;;;;17.64;100.00;99814.97;5062675;28;20048;-54
2022/07/05 03:24:28;;;;;;;1999.90;999.90;;;;;;;17.61;100.00;99817.78;5063121;28;20067;-53
2022/07/05 03:27:13;;;;;;;1999.90;999.90;;;;;;;17.60;100.00;99824.03;5062801;28;20450;-54
2022/07/05 03:29:59;;;;;;;1999.90;999.90;;;;;;;17.68;100.00;99824.47;5062965;28;20037;-55
2022/07/05 03:32:44;;;;;;;1999.90;999.90;;;;;;;17.69;100.00;99828.84;5064957;28;20064;-53
2022/07/05 03:35:28;;;;;;;1999.90;999.90;;;;;;;17.53;100.00;99826.16;5066462;28;20430;-54
2022/07/05 03:38:14;;;;;;;1999.90;999.90;;;;;;;17.58;100.00;99825.88;5064100;28;20097;-54
2022/07/05 03:40:59;;;;;;;1999.90;999.90;;;;;;;17.52;100.00;99824.44;5061915;28;20400;-54
2022/07/05 03:43:46;;;;;;;1999.90;999.90;;;;;;;17.55;100.00;99826.94;5063021;28;20043;-53
2022/07/05 03:46:30;;;;;;;1999.90;999.90;;;;;;;17.42;100.00;99836.44;5065465;28;20055;-54
2022/07/05 03:49:14;;;;;;;1999.90;999.90;;;;;;;17.46;100.00;99843.31;5066357;28;20098;-53
2022/07/05 03:51:59;;;;;;;1999.90;999.90;;;;;;;17.67;100.00;99842.13;5061795;28;20036;-53
2022/07/05 03:54:44;;;;;;;1999.90;999.90;;;;;;;17.68;100.00;99846.53;5064792;28;20114;-54
2022/07/05 03:57:29;;;;;;;1999.90;999.90;;;;;;;17.66;100.00;99848.38;5064695;28;20072;-54
2022/07/05 04:00:15;;;;;;;1999.90;999.90;;;;;;;17.83;100.00;99855.44;5061734;28;20051;-54
2022/07/05 04:03:06;;;;;;;1999.90;999.90;;;;;;;17.79;100.00;99856.56;5064622;28;20079;-54
2022/07/05 04:05:50;;;;;;;1999.90;999.90;;;;;;;17.82;100.00;99863.50;5063263;28;20426;-54
2022/07/05 04:08:35;;;;;;;1999.90;999.90;;;;;;;17.67;100.00;99859.84;5076211;28;20160;-54
2022/07/05 04:11:20;;;;;;;1999.90;999.90;;;;;;;17.63;100.00;99853.00;5061984;28;20484;-54
2022/07/05 04:14:09;;;;;;;1999.90;999.90;;;;;;;17.65;100.00;99865.22;5063349;28;20048;-54
2022/07/05 04:16:54;;;;;;;1999.90;999.90;;;;;;;17.71;100.00;99879.91;5064792;28;20488;-54
2022/07/05 04:19:38;;;;;;;1999.90;999.90;;;;;;;17.72;100.00;99871.91;5065722;28;20537;-54
2022/07/05 04:22:24;;;;;;;1999.90;999.90;;;;;;;17.78;100.00;99888.41;5063716;28;20057;-55
2022/07/05 04:25:17;;;;;;;1999.90;999.90;;;;;;;17.97;100.00;99876.78;5062453;28;20055;-54
2022/07/05 04:28:04;;;;;;;1999.90;999.90;;;;;;;17.79;100.00;99876.91;5077264;28;20068;-54
2022/07/05 04:30:51;;;;;;;1999.90;999.90;;;;;;;17.81;100.00;99870.59;5063971;28;20472;-54
2022/07/05 04:33:38;;;;;;;1999.90;999.90;;;;;;;17.82;100.00;99868.78;5064065;28;20055;-54
2022/07/05 04:36:23;;;;;;;1999.90;999.90;;;;;;;17.77;100.00;99868.16;5063520;28;20380;-54
2022/07/05 04:39:12;;;;;;;1999.90;999.90;;;;;;;17.96;100.00;99860.94;5062495;28;20055;-54
2022/07/05 04:42:03;;;;;;;1999.90;999.90;;;;;;;18.16;100.00;99870.44;5058976;28;20043;-54
2022/07/05 04:44:48;;;;;;;1999.90;999.90;;;;;;;18.14;100.00;99864.38;5059343;28;20094;-54
2022/07/05 04:47:34;;;;;;;1999.90;999.90;;;;;;;18.11;100.00;99868.06;5060439;28;20083;-54
2022/07/05 04:50:19;;;;;;;1999.90;999.90;;;;;;;18.25;100.00;99875.22;5086780;28;20056;-54
2022/07/05 04:53:03;;;;;;;1999.90;999.90;;;;;;;18.19;100.00;99864.97;5054661;28;20522;-55
2022/07/05 04:55:48;;;;;;;1999.90;999.90;;;;;;;18.06;100.00;99856.00;5052146;28;20064;-54
2022/07/05 04:58:32;;;;;;;1999.90;999.90;;;;;;;18.19;100.00;99863.16;5059067;28;20063;-54
2022/07/05 05:01:17;;;;;;;1999.90;999.90;;;;;;;18.02;100.00;99867.69;5058734;28;20094;-54
2022/07/05 05:04:01;;;;;;;1999.90;999.90;;;;;;;18.10;100.00;99870.78;5059468;28;20036;-54
2022/07/05 05:06:46;;;;;;;1999.90;999.90;;;;;;;17.96;100.00;99867.09;5056842;28;20694;-53
2022/07/05 05:09:31;;;;;;;1999.90;999.90;;;;;;;17.93;100.00;99875.19;5061669;28;20460;-54
2022/07/05 05:12:15;;;;;;;1999.90;999.90;;;;;;;17.88;100.00;99881.72;5067216;28;20118;-54
2022/07/05 05:15:00;;;;;;;1999.90;999.90;;;;;;;17.90;100.00;99885.13;5065543;28;20512;-54
2022/07/05 05:17:45;;;;;;;1999.90;999.90;;;;;;;18.00;100.00;99888.97;5064720;28;20479;-54
2022/07/05 05:20:30;;;;;;;1999.90;999.90;;;;;;;18.05;100.00;99892.25;5061124;28;20089;-55
2022/07/05 05:23:14;;;;;;;1999.90;999.90;;;;;;;18.03;100.00;99887.94;5065561;28;20053;-54
2022/07/05 05:25:58;;;;;;;1999.90;999.90;;;;;;;18.14;100.00;99891.75;5067058;28;20131;-55
2022/07/05 05:28:43;;;;;;;1999.90;999.90;;;;;;;18.05;100.00;99894.88;5065891;28;20062;-54
2022/07/05 05:31:27;;;;;;;1999.90;999.90;;;;;;;18.12;100.00;99893.59;5064718;28;20056;-54
2022/07/05 05:34:12;;;;;;;1999.90;999.90;;;;;;;18.24;100.00;99891.25;5066364;28;20048;-54
2022/07/05 05:36:56;;;;;;;1999.90;999.90;;;;;;;18.16;100.00;99892.50;5065115;28;20050;-54
2022/07/05 05:39:41;;;;;;;1999.90;999.90;;;;;;;18.13;100.00;99899.75;5066588;28;20102;-54
2022/07/05 05:42:26;;;;;;;1999.90;999.90;;;;;;;18.28;100.00;99900.72;5067975;28;20055;-55
2022/07/05 05:45:11;;;;;;;1999.90;999.90;;;;;;;18.09;100.00;99890.28;5065849;28;20049;-54
2022/07/05 05:47:58;;;;;;;1999.90;999.90;;;;;;;18.22;100.00;99883.34;5067226;28;20052;-54
2022/07/05 05:50:42;;;;;;;1999.90;999.90;;;;;;;18.21;100.00;99900.22;5064929;28;20055;-54
2022/07/05 05:53:27;;;;;;;1999.90;999.90;;;;;;;18.32;100.00;99900.47;5066633;28;20048;-54
2022/07/05 05:56:12;;;;;;;1999.90;999.90;;;;;;;18.00;100.00;99896.91;5066247;28;20514;-54
2022/07/05 05:58:57;;;;;;;1999.90;999.90;;;;;;;18.04;100.00;99895.84;5064117;28;20090;-55
2022/07/05 06:01:41;;;;;;;1999.90;999.90;;;;;;;17.77;100.00;99892.84;5066099;28;20032;-54
2022/07/05 06:04:25;;;;;;;1999.90;999.90;;;;;;;17.99;100.00;99901.38;5064860;28;20491;-54
2022/07/05 06:07:10;;;;;;;1999.90;999.90;;;;;;;18.07;100.00;99926.59;5068380;28;20094;-54
2022/07/05 06:09:54;;;;;;;1999.90;999.90;;;;;;;17.88;100.00;99929.41;5069174;28;20044;-54
2022/07/05 06:12:38;;;;;;;1999.90;999.90;;;;;;;18.01;100.00;99927.81;5064817;28;20048;-54
2022/07/05 06:15:22;;;;;;;1999.90;999.90;;;;;;;18.03;100.00;99930.34;5063732;28;20086;-54
2022/07/05 06:18:08;;;;;;;1999.90;999.90;;;;;;;17.97;100.00;99928.88;5063750;28;20048;-54
2022/07/05 06:20:53;;;;;;;1999.90;999.90;;;;;;;17.93;100.00;99938.78;5061714;28;20090;-54
2022/07/05 06:23:37;;;;;;;1999.90;999.90;;;;;;;17.85;100.00;99943.66;5064524;28;20067;-54
2022/07/05 06:26:21;;;;;;;1999.90;999.90;;;;;;;17.90;100.00;99946.06;5064913;28;20665;-54
2022/07/05 06:29:06;;;;;;;1999.90;999.90;;;;;;;17.91;100.00;99945.97;5053796;28;20118;-54
2022/07/05 06:31:50;;;;;;;1999.90;999.90;;;;;;;17.95;100.00;99944.03;5062356;28;20052;-54
2022/07/05 06:34:35;;;;;;;1999.90;999.90;;;;;;;17.98;100.00;99943.88;5060579;28;20098;-54
2022/07/05 06:37:20;;;;;;;1999.90;999.90;;;;;;;17.91;100.00;99939.84;5064815;28;20047;-54
2022/07/05 06:40:05;;;;;;;1999.90;999.90;;;;;;;17.92;100.00;99942.38;5061664;28;20110;-54
2022/07/05 06:42:51;;;;;;;1999.90;999.90;;;;;;;17.88;100.00;99954.09;5061965;28;20051;-54
2022/07/05 06:45:40;;;;;;;1999.90;999.90;;;;;;;17.88;100.00;99963.84;5061202;28;20063;-54
2022/07/05 06:48:25;;;;;;;1999.90;999.90;;;;;;;17.86;100.00;99963.91;5060120;28;20115;-54
2022/07/05 06:51:10;;;;;;;1999.90;999.90;;;;;;;17.88;100.00;99974.44;5062839;28;20419;-55
2022/07/05 06:53:55;;;;;;;1999.90;999.90;;;;;;;17.98;100.00;99973.00;5060956;28;20051;-54
2022/07/05 06:56:41;;;;;;;1999.90;999.90;;;;;;;17.95;100.00;99978.47;5061129;28;20565;-54
2022/07/05 06:59:25;;;;;;;1999.90;999.90;;;;;;;17.74;100.00;99978.63;5062821;28;20049;-55
2022/07/05 07:02:09;;;;;;;1999.90;999.90;;;;;;;17.85;100.00;99986.03;5062339;28;20059;-55
2022/07/05 07:04:53;;;;;;;1999.90;999.90;;;;;;;18.01;100.00;99988.75;5063834;28;20103;-54
2022/07/05 07:10:41;;;;;;;;;;;;;;;17.92;100.00;99992.72;5060922;28;20094;-55
2022/07/05 07:13:26;;;;;;;1999.90;999.90;;;;;;;17.90;100.00;99984.00;5060538;28;19983;-55
2022/07/05 07:16:10;;;;;;;1999.90;999.90;;;;;;;18.25;100.00;99978.63;5061891;28;20071;-54
2022/07/05 07:18:56;;;;;;;1999.90;999.90;;;;;;;18.45;100.00;99980.19;5058092;28;20118;-54
2022/07/05 07:21:41;;;;;;;1999.90;999.90;;;;;;;18.19;100.00;99969.19;5060257;28;20129;-54
2022/07/05 07:24:26;;;;;;;1999.90;999.90;;;;;;;18.37;100.00;99972.66;5057155;28;20087;-55
2022/07/05 07:27:10;;;;;;;1999.90;999.90;;;;;;;18.30;100.00;99967.78;5058990;28;20081;-55
2022/07/05 07:29:55;;;;;;;1999.90;999.90;;;;;;;18.36;100.00;99975.38;5058988;28;20514;-55
2022/07/05 07:32:39;;;;;;;1999.90;999.90;;;;;;;18.34;100.00;99961.38;5059716;28;20045;-54
2022/07/05 07:35:24;;;;;;;1999.90;999.90;;;;;;;18.31;100.00;99972.13;5054611;28;20045;-55
2022/07/05 07:38:08;;;;;;;1999.90;999.90;;;;;;;18.25;100.00;99969.81;5059079;28;20055;-55
2022/07/05 07:40:53;;;;;;;1999.90;999.90;;;;;;;18.39;100.00;99972.56;5058511;28;20052;-55
2022/07/05 07:43:38;;;;;;;1999.90;999.90;;;;;;;18.15;100.00;99975.59;5061512;28;20103;-55
2022/07/05 07:46:22;;;;;;;1999.90;999.90;;;;;;;18.42;100.00;99986.50;5061366;28;20048;-55
2022/07/05 07:49:07;;;;;;;1999.90;999.90;;;;;;;18.22;100.00;99984.09;5056602;28;20039;-55
2022/07/05 07:51:52;;;;;;;1999.90;999.90;;;;;;;18.32;100.00;99992.41;5064388;28;20694;-54
2022/07/05 07:54:36;;;;;;;1999.90;999.90;;;;;;;18.43;100.00;99995.34;5061169;28;20052;-55
2022/07/05 07:57:21;;;;;;;1999.90;999.90;;;;;;;18.39;100.00;99999.06;5062295;28;20209;-54
2022/07/05 08:00:06;;;;;;;1999.90;999.90;;;;;;;18.38;100.00;100003.53;5059977;28;20136;-54
2022/07/05 08:02:56;;;;;;;1999.90;999.90;;;;;;;18.49;100.00;100013.56;5062685;28;20047;-55
2022/07/05 08:05:40;;;;;;;1999.90;999.90;;;;;;;18.59;100.00;100012.13;5063806;28;20122;-55
2022/07/05 08:08:25;;;;;;;1999.90;999.90;;;;;;;18.45;100.00;100012.00;5060778;28;21687;-56
2022/07/05 08:11:09;;;;;;;1999.90;999.90;;;;;;;18.60;100.00;100026.25;5062348;28;20431;-55
2022/07/05 08:13:53;;;;;;;1999.90;999.90;;;;;;;18.43;100.00;100020.06;5065529;28;20464;-55
2022/07/05 08:16:38;;;;;;;1999.90;999.90;;;;;;;18.52;100.00;100026.63;5063854;28;20341;-55
2022/07/05 08:22:26;;;;;;;1999.90;999.90;;;;;;;18.49;100.00;100021.53;5064700;28;20057;-55
2022/07/05 08:25:13;;;;;;;1999.90;999.90;;;;;;;18.60;100.00;100029.75;5063515;28;20045;-55
2022/07/05 08:27:57;;;;;;;1999.90;999.90;;;;;;;18.44;100.00;100024.41;5068703;28;20171;-54
2022/07/05 08:30:42;;;;;;;1999.90;999.90;;;;;;;18.36;100.00;100013.38;5065243;28;20048;-55
2022/07/05 08:33:26;;;;;;;1999.90;999.90;;;;;;;18.29;100.00;100029.69;5065348;28;20054;-55
2022/07/05 08:36:11;;;;;;;1999.90;999.90;;;;;;;18.58;100.00;100025.44;5061070;28;20060;-55
2022/07/05 08:38:56;;;;;;;1999.90;999.90;;;;;;;18.49;100.00;100024.19;5065677;28;20052;-55
2022/07/05 08:41:42;;;;;;;1999.90;999.90;;;;;;;18.49;100.00;100026.84;5064586;28;20037;-55
2022/07/05 08:44:35;;;;;;;1999.90;999.90;;;;;;;18.54;100.00;100024.78;5061028;28;20168;-55
2022/07/05 08:47:19;;;;;;;1999.90;999.90;;;;;;;18.46;100.00;100021.69;5065653;28;20044;-55
2022/07/05 08:50:05;;;;;;;1999.90;999.90;;;;;;;18.36;100.00;100021.34;5067778;28;20048;-55
2022/07/05 08:52:50;;;;;;;1999.90;999.90;;;;;;;18.68;100.00;100016.91;5064744;28;20125;-55
2022/07/05 08:55:35;;;;;;;1999.90;999.90;;;;;;;18.99;100.00;100014.38;5068704;28;20077;-55
2022/07/05 08:58:20;;;;;;;1999.90;999.90;;;;;;;19.33;100.00;100003.53;5068052;28;20044;-55
2022/07/05 09:01:06;;;;;;;1999.90;999.90;;;;;;;19.14;100.00;100009.06;5066450;28;20071;-55
2022/07/05 09:03:52;;;;;;;1999.90;999.90;;;;;;;19.45;100.00;100006.41;5066588;28;20045;-55
2022/07/05 09:06:39;;;;;;;1999.90;999.90;;;;;;;19.41;100.00;100002.25;5059212;28;20060;-55
2022/07/05 09:09:25;;;;;;;1999.90;999.90;;;;;;;19.44;100.00;100002.06;5064993;28;20105;-56
2022/07/05 09:12:12;;;;;;;1999.90;999.90;;;;;;;19.06;100.00;99998.00;5063097;28;20063;-55
2022/07/05 09:14:57;;;;;;;1999.90;999.90;;;;;;;19.15;100.00;99993.97;5063015;28;20048;-55
2022/07/05 09:17:45;;;;;;;1999.90;999.90;;;;;;;18.85;100.00;99993.94;5063466;28;20387;-55
2022/07/05 09:20:29;;;;;;;1999.90;999.90;;;;;;;19.01;100.00;99997.44;5059937;28;20150;-55
2022/07/05 09:23:20;;;;;;;1999.90;999.90;;;;;;;19.06;100.00;99982.09;5063680;28;20047;-55
2022/07/05 09:26:05;;;;;;;1999.90;999.90;;;;;;;19.34;100.00;99985.81;5061313;28;20075;-56
2022/07/05 09:28:56;;;;;;;1999.90;999.90;;;;;;;19.30;100.00;99981.59;5063205;28;20079;-55
2022/07/05 09:31:43;;;;;;;1999.90;999.90;;;;;;;19.35;100.00;99990.16;5062777;28;20557;-55
2022/07/05 09:34:29;;;;;;;1999.90;999.90;;;;;;;19.07;100.00;99990.91;5058639;28;20498;-55
2022/07/05 09:37:13;;;;;;;1999.90;999.90;;;;;;;19.64;100.00;99983.16;5057669;28;20048;-55
2022/07/05 09:39:58;;;;;;;1999.90;999.90;;;;;;;19.84;100.00;99981.97;5058934;28;20151;-55
2022/07/05 09:42:43;;;;;;;1999.90;999.90;;;;;;;19.98;100.00;99987.28;5059842;28;20052;-55
2022/07/05 09:45:27;;;;;;;1999.90;999.90;;;;;;;19.76;100.00;99993.06;5062176;28;20055;-54
2022/07/05 09:48:12;;;;;;;1999.90;999.90;;;;;;;20.03;100.00;99987.88;5064873;28;20060;-55
2022/07/05 09:51:07;;;;;;;1999.90;999.90;;;;;;;19.86;100.00;99990.72;5068355;28;20569;-55
2022/07/05 09:53:57;;;;;;;1999.90;999.90;;;;;;;20.07;100.00;99989.38;5068613;28;20699;-55
2022/07/05 09:56:47;;;;;;;1999.90;999.90;;;;;;;20.21;100.00;99996.50;5059652;28;20624;-55
2022/07/05 09:59:32;;;;;;;1999.90;999.90;;;;;;;19.85;100.00;100000.47;5059972;28;20086;-55
2022/07/05 10:02:34;;;;;;;1999.90;999.90;;;;;;;19.83;100.00;100007.69;5067047;28;20136;-55
2022/07/05 10:05:23;;;;;;;1999.90;999.90;;;;;;;19.97;100.00;100009.50;5067548;28;20044;-54
2022/07/05 10:08:10;;;;;;;1999.90;999.90;;;;;;;20.37;100.00;100001.72;5067749;28;20044;-55
2022/07/05 10:10:54;;;;;;;1999.90;999.90;;;;;;;19.94;100.00;100003.53;5066778;28;20521;-55
2022/07/05 10:13:40;;;;;;;1999.90;999.90;;;;;;;20.08;100.00;100009.72;5062537;28;20428;-55
2022/07/05 10:16:25;;;;;;;1999.90;999.90;;;;;;;20.22;100.00;100000.03;5060097;28;20052;-55
2022/07/05 10:19:19;;;;;;;1999.90;999.90;;;;;;;20.26;100.00;100005.06;5060319;28;20052;-55
2022/07/05 10:22:06;;;;;;;1999.90;999.90;;;;;;;20.41;100.00;100002.38;5062743;28;20407;-55
2022/07/05 10:24:51;;;;;;;1999.90;999.90;;;;;;;20.70;100.00;100003.22;5061565;28;20051;-55
2022/07/05 10:27:36;;;;;;;1999.90;999.90;;;;;;;20.36;100.00;100013.31;5061012;28;20044;-55
2022/07/05 10:30:22;;;;;;;1999.90;999.90;;;;;;;20.40;100.00;100006.00;5059867;28;20042;-55
2022/07/05 10:33:07;;;;;;;1999.90;999.90;;;;;;;20.53;100.00;100017.59;5061540;28;20045;-55
2022/07/05 10:35:53;;;;;;;1999.90;999.90;;;;;;;20.44;100.00;100008.41;5063616;28;20052;-55
2022/07/05 10:38:41;;;;;;;1999.90;999.90;;;;;;;20.66;100.00;100013.22;5064029;28;20102;-55
2022/07/05 10:41:26;;;;;;;1999.90;999.90;;;;;;;20.70;100.00;100009.44;5061445;28;20414;-55
2022/07/05 10:44:10;;;;;;;1999.90;999.90;;;;;;;20.81;100.00;100008.75;5059162;28;20090;-56
2022/07/05 10:47:08;;;;;;;1999.90;999.90;;;;;;;20.39;100.00;100009.63;5062438;28;20055;-56
2022/07/05 10:50:04;;;;;;;1999.90;999.90;;;;;;;20.54;100.00;100012.22;5062216;28;20067;-55
2022/07/05 10:53:02;;;;;;;1999.90;999.90;;;;;;;20.33;100.00;100007.34;5059470;28;20060;-55
2022/07/05 10:55:48;;;;;;;1999.90;999.90;;;;;;;20.36;100.00;100000.03;5061680;28;20052;-55
2022/07/05 10:58:42;;;;;;;1999.90;999.90;;;;;;;20.03;100.00;100003.81;5062551;28;20048;-55
2022/07/05 11:01:28;;;;;;;1999.90;999.90;;;;;;;19.89;100.00;99997.63;5058664;28;20647;-55
2022/07/05 11:04:19;;;;;;;1999.90;999.90;;;;;;;20.10;100.00;99992.81;5059958;28;20127;-55
2022/07/05 11:07:04;;;;;;;1999.90;999.90;;;;;;;19.84;100.00;99990.78;5057210;28;20110;-55
2022/07/05 11:10:15;;;;;;;1999.90;999.90;;;;;;;19.61;100.00;99992.13;5055996;28;20045;-55
2022/07/05 11:13:03;;;;;;;1999.90;999.90;;;;;;;19.33;100.00;99979.63;5060444;28;20083;-55
2022/07/05 11:16:27;;;;;;;1999.90;999.90;;;;;;;19.42;100.00;99993.31;5058769;28;20049;-55
2022/07/05 11:19:18;;;;;;;1999.90;999.90;;;;;;;19.22;100.00;99995.34;5059170;28;20067;-55
2022/07/05 11:22:05;;;;;;;1999.90;999.90;;;;;;;19.33;100.00;99997.34;5057463;28;20055;-55
2022/07/05 11:24:50;;;;;;;1999.90;999.90;;;;;;;19.33;100.00;99998.22;5060979;28;20071;-55
2022/07/05 11:27:35;;;;;;;1999.90;999.90;;;;;;;19.38;100.00;99995.31;5061864;28;20063;-55
2022/07/05 11:30:23;;;;;;;1999.90;999.90;;;;;;;19.48;100.00;100006.25;5061434;28;20059;-55
2022/07/05 11:33:27;;;;;;;1999.90;999.90;;;;;;;19.07;100.00;99999.72;5058959;28;20102;-54
2022/07/05 11:36:28;;;;;;;1999.90;999.90;;;;;;;19.20;100.00;100006.97;5062057;28;20048;-54
2022/07/05 11:39:16;;;;;;;1999.90;999.90;;;;;;;19.22;100.00;100007.75;5061117;28;20055;-55
2022/07/05 11:42:01;;;;;;;1999.90;999.90;;;;;;;19.18;100.00;100006.22;5060479;28;20429;-54
2022/07/05 11:44:49;;;;;;;1999.90;999.90;;;;;;;19.04;100.00;99999.88;5056607;28;20062;-54
2022/07/05 11:47:35;;;;;;;1999.90;999.90;;;;;;;19.22;100.00;100008.59;5060021;28;20068;-54
2022/07/05 11:50:25;;;;;;;1999.90;999.90;;;;;;;19.26;100.00;100006.63;5059462;28;20049;-54
2022/07/05 11:53:11;;;;;;;1999.90;999.90;;;;;;;19.24;100.00;100009.38;5060814;28;20098;-54
2022/07/05 11:55:59;;;;;;;1999.90;999.90;;;;;;;19.25;100.00;100003.13;5063288;28;20402;-55
2022/07/05 11:58:43;;;;;;;1999.90;999.90;;;;;;;19.21;100.00;99996.28;5059049;28;20052;-55
2022/07/05 12:01:28;;;;;;;1999.90;999.90;;;;;;;19.04;100.00;99994.56;5059157;28;20055;-55
2022/07/05 12:04:21;;;;;;;1999.90;999.90;;;;;;;18.99;100.00;100004.63;5056830;28;20083;-55
2022/07/05 12:07:06;;;;;;;1999.90;999.90;;;;;;;18.80;100.00;99991.53;5060624;28;20059;-55
2022/07/05 12:12:54;;;;;;;1999.90;999.90;;;;;;;18.72;100.00;100000.81;5059506;28;20051;-54
2022/07/05 12:15:39;;;;;;;1999.90;999.90;;;;;;;18.87;100.00;100000.00;5063369;28;20040;-54